Time;durP1;ratioP1;P1;durP2;ratioP2;P2;SDS_P1;SDS_P2;PMS_P1;PMS_P2;Temp;Humidity;BMP_temperature;BMP_pressure;BME280_temperature;BME280_humidity;BME280_pressure;Samples;Min_cycle;Max_cycle;Signal;HPM_P1;HPM_P2
2023/02/25 00:00:43;;;;;;;18.13;2.85;;;;;;;3.38;100.00;101028.09;5053102;28;20086;-79
2023/02/25 00:03:10;;;;;;;13.27;2.22;;;;;;;3.35;100.00;101036.19;5065323;28;20036;-79
2023/02/25 00:05:39;;;;;;;19.02;2.58;;;;;;;3.37;100.00;101036.94;5073626;28;20089;-79
2023/02/25 00:08:05;;;;;;;12.07;3.15;;;;;;;3.38;100.00;101036.00;5075373;28;20037;-78
2023/02/25 00:10:30;;;;;;;24.70;2.67;;;;;;;3.38;100.00;101032.53;5074932;28;20485;-79
2023/02/25 00:12:56;;;;;;;15.27;2.47;;;;;;;3.37;100.00;101038.72;5075428;28;20028;-79
2023/02/25 00:15:21;;;;;;;23.52;3.10;;;;;;;3.32;100.00;101033.72;5075020;28;20060;-79
2023/02/25 00:17:48;;;;;;;16.25;2.55;;;;;;;3.31;100.00;101030.25;5075128;28;20119;-80
2023/02/25 00:20:15;;;;;;;25.63;3.38;;;;;;;3.34;100.00;101050.25;5075006;28;20036;-79
2023/02/25 00:22:41;;;;;;;25.95;3.30;;;;;;;3.40;100.00;101034.13;5075078;28;20115;-79
2023/02/25 00:25:07;;;;;;;22.00;2.40;;;;;;;3.38;100.00;101033.38;5075418;28;20117;-79
2023/02/25 00:27:33;;;;;;;16.77;2.78;;;;;;;3.34;100.00;101037.09;5075066;28;20056;-80
2023/02/25 00:29:59;;;;;;;16.42;3.33;;;;;;;3.30;100.00;101035.56;5075051;28;20157;-79
2023/02/25 00:32:25;;;;;;;16.42;2.30;;;;;;;3.25;100.00;101038.47;5074988;28;20029;-79
2023/02/25 00:34:50;;;;;;;17.52;2.55;;;;;;;3.20;100.00;101040.53;5075231;28;20519;-80
2023/02/25 00:37:16;;;;;;;28.10;3.33;;;;;;;3.21;100.00;101044.84;5074770;28;20115;-79
2023/02/25 00:39:41;;;;;;;10.63;2.22;;;;;;;3.19;100.00;101046.72;5075040;28;20103;-79
2023/02/25 00:42:14;;;;;;;11.20;1.80;;;;;;;3.16;100.00;101042.50;5075027;28;20086;-80
2023/02/25 00:44:45;;;;;;;15.02;2.40;;;;;;;3.14;100.00;101057.50;5040325;28;20029;-80
2023/02/25 00:47:10;;;;;;;15.05;2.20;;;;;;;3.09;100.00;101041.13;5074662;28;20123;-79
2023/02/25 00:49:36;;;;;;;10.15;2.25;;;;;;;3.09;100.00;101049.03;5074329;28;20143;-79
2023/02/25 00:52:01;;;;;;;5.45;1.48;;;;;;;3.04;100.00;101052.84;5074780;28;20036;-80
2023/02/25 00:54:27;;;;;;;13.40;2.25;;;;;;;2.98;100.00;101052.22;5074435;28;20029;-79
2023/02/25 00:56:52;;;;;;;13.15;2.05;;;;;;;2.95;100.00;101049.75;5074946;28;20111;-80
2023/02/25 00:59:17;;;;;;;20.17;2.10;;;;;;;2.92;100.00;101039.41;5056303;28;20118;-80
2023/02/25 01:01:43;;;;;;;9.95;1.70;;;;;;;2.93;100.00;101035.88;5074731;28;20393;-79
2023/02/25 01:04:09;;;;;;;14.13;2.33;;;;;;;2.97;100.00;101047.06;5074721;28;20123;-80
2023/02/25 01:06:36;;;;;;;13.82;2.30;;;;;;;2.95;100.00;101051.56;5074343;28;20114;-79
2023/02/25 01:09:04;;;;;;;6.85;1.70;;;;;;;2.95;100.00;101051.56;5074616;28;20527;-79
2023/02/25 01:11:32;;;;;;;11.68;2.58;;;;;;;2.96;100.00;101051.47;5074027;28;20062;-80
2023/02/25 01:14:04;;;;;;;17.77;2.22;;;;;;;3.02;100.00;101065.22;5074264;28;20404;-80
2023/02/25 01:16:31;;;;;;;13.80;2.60;;;;;;;3.04;100.00;101065.97;5073860;28;20064;-80
2023/02/25 01:18:59;;;;;;;17.83;2.65;;;;;;;3.06;100.00;101064.09;5056117;28;20036;-80
2023/02/25 01:21:27;;;;;;;21.13;2.90;;;;;;;3.08;100.00;101064.88;5074121;28;20082;-80
2023/02/25 01:24:00;;;;;;;8.43;1.20;;;;;;;3.10;100.00;101061.22;5074422;28;20048;-78
2023/02/25 01:26:27;;;;;;;14.10;2.28;;;;;;;3.11;100.00;101060.28;5073832;28;20103;-79
2023/02/25 01:28:54;;;;;;;20.75;2.88;;;;;;;3.15;100.00;101053.94;5074117;28;20024;-80
2023/02/25 01:31:28;;;;;;;15.65;2.65;;;;;;;3.15;100.00;101059.19;5055812;28;20033;-79
2023/02/25 01:34:05;;;;;;;13.73;2.10;;;;;;;3.16;100.00;101054.78;5074429;28;20037;-79
2023/02/25 01:36:32;;;;;;;19.58;2.90;;;;;;;3.17;100.00;101056.47;5073892;28;20020;-79
2023/02/25 01:38:58;;;;;;;19.70;2.65;;;;;;;3.17;100.00;101052.06;5073782;28;20093;-80
2023/02/25 01:41:25;;;;;;;22.63;3.25;;;;;;;3.18;100.00;101050.28;5055597;28;20526;-80
2023/02/25 01:44:11;;;;;;;25.02;3.65;;;;;;;3.21;100.00;101047.50;5073838;28;20033;-80
2023/02/25 01:46:38;;;;;;;22.45;3.78;;;;;;;3.22;100.00;101043.06;5073382;28;20020;-79
2023/02/25 01:49:15;;;;;;;17.30;2.53;;;;;;;3.23;100.00;101050.03;5073286;28;20132;-80
2023/02/25 01:51:43;;;;;;;21.80;2.85;;;;;;;3.29;100.00;101044.41;5073257;28;20606;-79
2023/02/25 01:54:11;;;;;;;15.00;2.50;;;;;;;3.29;100.00;101057.56;5073324;28;20032;-79
2023/02/25 01:56:39;;;;;;;21.75;3.22;;;;;;;3.34;100.00;101073.94;5072744;28;20029;-79
2023/02/25 01:59:05;;;;;;;14.98;1.98;;;;;;;3.26;100.00;101076.16;5073552;28;20028;-79
2023/02/25 02:01:34;;;;;;;14.00;2.25;;;;;;;3.09;100.00;101087.59;5072485;28;20489;-79
2023/02/25 02:04:03;;;;;;;9.60;1.88;;;;;;;2.87;100.00;101077.44;5073321;28;20039;-80
2023/02/25 02:06:33;;;;;;;9.25;1.98;;;;;;;2.69;100.00;101074.00;5072760;28;20028;-80
2023/02/25 02:09:00;;;;;;;10.77;2.67;;;;;;;2.49;100.00;101073.28;5073396;28;20468;-80
2023/02/25 02:11:25;;;;;;;12.40;1.42;;;;;;;2.29;100.00;101064.66;5072977;28;20368;-80
2023/02/25 02:13:54;;;;;;;7.72;1.40;;;;;;;2.14;100.00;101059.38;5073423;28;20039;-80
2023/02/25 02:16:35;;;;;;;8.80;2.08;;;;;;;2.00;100.00;101060.06;5073742;28;20460;-80
2023/02/25 02:19:38;;;;;;;12.82;2.88;;;;;;;1.90;100.00;101060.56;5073233;28;20036;-80
2023/02/25 02:22:22;;;;;;;17.10;2.17;;;;;;;1.86;100.00;101061.63;5073141;28;20020;-80
2023/02/25 02:25:15;;;;;;;11.32;2.30;;;;;;;1.86;100.00;101066.88;5072435;28;20468;-80
2023/02/25 02:27:59;;;;;;;11.35;1.83;;;;;;;1.88;100.00;101065.03;5072395;28;20035;-80
2023/02/25 02:30:34;;;;;;;14.25;2.28;;;;;;;1.91;100.00;101064.00;5073075;28;20036;-80
2023/02/25 02:33:09;;;;;;;9.52;2.28;;;;;;;1.96;100.00;101058.53;5055240;28;20035;-80
2023/02/25 02:36:07;;;;;;;23.02;2.38;;;;;;;2.04;100.00;101061.63;5072860;28;20119;-80
2023/02/25 02:38:42;;;;;;;24.73;2.63;;;;;;;2.09;100.00;101065.72;5073296;28;20031;-80
2023/02/25 02:41:26;;;;;;;17.60;3.00;;;;;;;2.17;100.00;101064.47;5074036;28;20055;-80
2023/02/25 02:44:01;;;;;;;32.65;3.08;;;;;;;2.28;100.00;101059.50;5073402;28;20108;-80
2023/02/25 02:46:39;;;;;;;24.13;2.92;;;;;;;2.40;100.00;101060.63;5072896;28;20024;-80
2023/02/25 02:49:10;;;;;;;21.27;2.53;;;;;;;2.54;100.00;101066.03;5072931;28;20139;-80
2023/02/25 02:52:08;;;;;;;16.10;3.20;;;;;;;2.71;100.00;101067.72;5072454;28;20032;-80
2023/02/25 02:54:37;;;;;;;15.88;2.38;;;;;;;2.77;100.00;101070.03;5064925;28;20052;-80
2023/02/25 02:57:06;;;;;;;19.95;2.53;;;;;;;2.81;100.00;101065.47;5055072;28;20028;-80
2023/02/25 02:59:41;;;;;;;15.65;3.08;;;;;;;2.82;100.00;101070.63;5054611;28;20070;-81
2023/02/25 03:02:28;;;;;;;20.52;3.15;;;;;;;2.84;100.00;101060.03;5072756;28;20508;-80
2023/02/25 03:04:59;;;;;;;19.42;2.63;;;;;;;2.84;100.00;101054.78;5072280;28;20487;-81
2023/02/25 03:07:26;;;;;;;17.50;2.78;;;;;;;2.80;100.00;101074.28;5071847;28;20050;-80
2023/02/25 03:09:58;;;;;;;17.95;2.88;;;;;;;2.76;100.00;101064.84;5072268;28;20040;-80
2023/02/25 03:12:24;;;;;;;20.95;2.90;;;;;;;2.78;100.00;101074.34;5072712;28;20469;-80
2023/02/25 03:14:49;;;;;;;11.50;2.03;;;;;;;2.82;100.00;101077.66;5072193;28;20086;-80
2023/02/25 03:17:22;;;;;;;25.75;4.35;;;;;;;2.85;100.00;101081.91;5072596;28;20106;-81
2023/02/25 03:20:06;;;;;;;13.73;2.60;;;;;;;2.71;100.00;101101.88;5054114;28;20477;-80
2023/02/25 03:22:38;;;;;;;13.50;2.95;;;;;;;2.37;100.00;101085.28;5072426;28;20147;-80
2023/02/25 03:25:03;;;;;;;;;;;;;;;2.18;100.00;101079.28;5072946;28;20047;-80
2023/02/25 03:27:34;;;;;;;15.00;1.88;;;;;;;2.01;100.00;101069.66;5071157;28;19908;-80
2023/02/25 03:30:16;;;;;;;14.43;2.30;;;;;;;1.87;100.00;101065.13;5072550;28;20158;-80
2023/02/25 03:32:48;;;;;;;17.60;3.38;;;;;;;1.80;100.00;101066.34;5071991;28;20122;-80
2023/02/25 03:35:16;;;;;;;;;;;;;;;1.74;100.00;101065.72;5072453;28;20035;-80
2023/02/25 03:37:45;;;;;;;17.55;2.88;;;;;;;1.79;100.00;101072.50;5072129;28;19908;-80
2023/02/25 03:40:14;;;;;;;31.73;2.88;;;;;;;1.80;100.00;101074.22;5072070;28;20028;-80
2023/02/25 03:42:44;;;;;;;16.67;2.67;;;;;;;1.84;100.00;101079.22;5071448;28;20037;-80
2023/02/25 03:45:12;;;;;;;12.80;2.33;;;;;;;1.91;100.00;101082.38;5072222;28;20121;-80
2023/02/25 03:47:38;;;;;;;21.13;2.35;;;;;;;2.08;100.00;101082.38;5071518;28;20074;-79
2023/02/25 03:50:25;;;;;;;13.85;3.13;;;;;;;2.24;100.00;101081.59;5072101;28;20040;-79
2023/02/25 03:52:50;;;;;;;20.17;3.55;;;;;;;2.27;100.00;101081.47;5071528;28;20063;-79
2023/02/25 03:55:17;;;;;;;19.73;2.67;;;;;;;2.28;100.00;101078.75;5072294;28;20091;-79
2023/02/25 03:57:44;;;;;;;19.33;3.15;;;;;;;2.27;100.00;101070.97;5071602;28;20040;-80
2023/02/25 04:00:23;;;;;;;13.40;1.73;;;;;;;2.28;100.00;101077.88;5072059;28;20047;-79
2023/02/25 04:02:49;;;;;;;9.02;2.40;;;;;;;2.28;100.00;101073.50;5071719;28;20419;-80
2023/02/25 04:05:16;;;;;;;13.30;1.75;;;;;;;2.24;100.00;101087.72;5071794;28;20040;-79
2023/02/25 04:07:41;;;;;;;10.77;2.35;;;;;;;2.22;100.00;101086.09;5053924;28;20378;-79
2023/02/25 04:10:10;;;;;;;16.15;2.72;;;;;;;2.31;100.00;101103.13;5071953;28;20029;-80
2023/02/25 04:12:35;;;;;;;14.65;1.95;;;;;;;2.47;100.00;101098.78;5071824;28;20056;-79
2023/02/25 04:15:02;;;;;;;10.43;2.00;;;;;;;2.49;100.00;101102.16;5071538;28;20052;-79
2023/02/25 04:17:27;;;;;;;19.17;2.72;;;;;;;2.50;100.00;101098.63;5053924;28;20033;-79
2023/02/25 04:19:53;;;;;;;15.48;2.58;;;;;;;2.46;100.00;101092.69;5074609;28;20036;-79
2023/02/25 04:22:18;;;;;;;14.05;1.75;;;;;;;2.42;100.00;101082.44;5075489;28;20029;-79
2023/02/25 04:24:43;;;;;;;14.20;2.10;;;;;;;2.42;100.00;101096.41;5074772;28;20166;-79
2023/02/25 04:27:09;;;;;;;15.13;2.03;;;;;;;2.41;100.00;101099.13;5075550;28;20117;-80
2023/02/25 04:29:34;;;;;;;18.63;1.98;;;;;;;2.43;100.00;101107.75;5057271;28;20070;-79
2023/02/25 04:31:59;;;;;;;13.48;2.17;;;;;;;2.58;100.00;101108.72;5056668;28;20032;-78
2023/02/25 04:34:25;;;;;;;11.48;1.83;;;;;;;2.55;100.00;101111.50;5075291;28;20461;-79
2023/02/25 04:36:51;;;;;;;10.52;1.88;;;;;;;2.43;100.00;101113.88;5074849;28;20354;-79
2023/02/25 04:39:17;;;;;;;14.30;1.73;;;;;;;2.34;100.00;101108.22;5075080;28;20515;-79
2023/02/25 04:41:43;;;;;;;15.43;2.42;;;;;;;2.28;100.00;101118.13;5074833;28;20028;-79
2023/02/25 04:44:09;;;;;;;19.35;2.22;;;;;;;2.29;100.00;101113.72;5075026;28;20388;-79
2023/02/25 04:46:37;;;;;;;17.25;2.13;;;;;;;2.29;100.00;101111.94;5074985;28;20135;-79
2023/02/25 04:49:04;;;;;;;14.60;2.67;;;;;;;2.31;100.00;101116.28;5056575;28;20287;-79
2023/02/25 04:51:29;;;;;;;17.67;3.30;;;;;;;2.37;100.00;101118.56;5074537;28;20028;-78
2023/02/25 04:53:54;;;;;;;11.68;2.08;;;;;;;2.41;100.00;101115.72;5074389;28;20037;-79
2023/02/25 04:56:20;;;;;;;18.90;1.85;;;;;;;2.45;100.00;101119.88;5075038;28;20115;-79
2023/02/25 04:58:46;;;;;;;16.30;2.65;;;;;;;2.53;100.00;101129.97;5074382;28;20029;-79
2023/02/25 05:01:12;;;;;;;12.93;2.42;;;;;;;2.59;100.00;101128.81;5074651;28;20032;-79
2023/02/25 05:03:38;;;;;;;22.77;3.28;;;;;;;2.66;100.00;101127.56;5074674;28;20024;-79
2023/02/25 05:06:05;;;;;;;14.07;2.35;;;;;;;2.69;100.00;101116.03;5073892;28;20054;-79
2023/02/25 05:08:31;;;;;;;19.13;2.35;;;;;;;2.72;100.00;101114.09;5074452;28;20085;-78
2023/02/25 05:10:56;;;;;;;8.18;2.00;;;;;;;2.75;100.00;101121.81;5056104;28;20465;-79
2023/02/25 05:13:22;;;;;;;25.88;2.45;;;;;;;2.77;100.00;101119.94;5074468;28;20040;-79
2023/02/25 05:15:47;;;;;;;22.00;2.55;;;;;;;2.77;100.00;101125.22;5074055;28;20021;-77
2023/02/25 05:18:13;;;;;;;15.05;2.38;;;;;;;2.75;100.00;101124.44;5056510;28;20033;-78
2023/02/25 05:20:44;;;;;;;17.70;2.42;;;;;;;2.69;100.00;101119.53;5074297;28;20465;-79
2023/02/25 05:23:10;;;;;;;13.90;2.05;;;;;;;2.67;100.00;101128.41;5074229;28;20043;-78
2023/02/25 05:25:41;;;;;;;20.27;2.83;;;;;;;2.58;100.00;101129.75;5056164;28;20427;-78
2023/02/25 05:28:09;;;;;;;13.13;2.80;;;;;;;2.54;100.00;101113.31;5073746;28;20028;-78
2023/02/25 05:30:36;;;;;;;16.35;2.80;;;;;;;2.43;100.00;101111.25;5073008;28;20036;-77
2023/02/25 05:33:02;;;;;;;14.40;2.28;;;;;;;2.35;100.00;101118.66;5073710;28;20044;-78
2023/02/25 05:35:27;;;;;;;16.15;2.10;;;;;;;2.28;100.00;101115.50;5073940;28;20032;-77
2023/02/25 05:37:53;;;;;;;24.83;3.25;;;;;;;2.25;100.00;101117.44;5073491;28;20089;-77
2023/02/25 05:40:19;;;;;;;21.23;2.83;;;;;;;2.22;100.00;101107.94;5073635;28;20146;-78
2023/02/25 05:42:48;;;;;;;16.45;3.10;;;;;;;2.23;100.00;101121.91;5073559;28;20422;-80
2023/02/25 05:45:14;;;;;;;24.27;3.05;;;;;;;2.23;100.00;101122.75;5073129;28;20033;-80
2023/02/25 05:47:40;;;;;;;16.83;2.00;;;;;;;2.31;100.00;101132.03;5055606;28;20078;-78
2023/02/25 05:50:06;;;;;;;11.50;2.53;;;;;;;2.44;100.00;101138.34;5055422;28;20422;-78
2023/02/25 05:52:31;;;;;;;9.60;1.88;;;;;;;2.56;100.00;101145.59;5073719;28;20502;-80
2023/02/25 05:54:56;;;;;;;8.90;1.52;;;;;;;2.64;100.00;101143.41;5073699;28;20033;-77
2023/02/25 05:57:22;;;;;;;15.23;2.35;;;;;;;2.65;100.00;101147.72;5073603;28;20423;-80
2023/02/25 05:59:48;;;;;;;13.68;2.53;;;;;;;2.58;100.00;101142.88;5073329;28;20025;-80
2023/02/25 06:02:14;;;;;;;6.30;1.35;;;;;;;2.50;100.00;101145.91;5072993;28;20051;-79
2023/02/25 06:04:39;;;;;;;12.13;1.77;;;;;;;2.40;100.00;101135.00;5073070;28;20149;-79
2023/02/25 06:07:05;;;;;;;20.08;2.00;;;;;;;2.32;100.00;101131.09;5072884;28;20481;-79
2023/02/25 06:09:33;;;;;;;9.05;1.90;;;;;;;2.25;100.00;101139.28;5073293;28;20063;-79
2023/02/25 06:11:59;;;;;;;16.15;1.77;;;;;;;2.16;100.00;101126.63;5072645;28;20032;-79
2023/02/25 06:14:24;;;;;;;14.52;2.10;;;;;;;2.06;100.00;101131.50;5073106;28;20086;-79
2023/02/25 06:16:50;;;;;;;11.57;1.75;;;;;;;2.01;100.00;101130.03;5072910;28;20108;-78
2023/02/25 06:19:16;;;;;;;13.70;2.63;;;;;;;2.02;100.00;101140.44;5072629;28;20470;-79
2023/02/25 06:21:41;;;;;;;11.55;2.13;;;;;;;2.10;100.00;101140.91;5072686;28;20037;-79
2023/02/25 06:24:08;;;;;;;20.50;3.33;;;;;;;2.13;100.00;101141.69;5072615;28;20029;-79
2023/02/25 06:26:40;;;;;;;15.73;2.30;;;;;;;2.17;100.00;101138.00;5072948;28;20055;-79
2023/02/25 06:29:06;;;;;;;18.60;2.65;;;;;;;2.32;100.00;101160.84;5072535;28;20044;-78
2023/02/25 06:31:33;;;;;;;15.25;1.88;;;;;;;2.42;100.00;101161.22;5072819;28;20039;-79
2023/02/25 06:33:58;;;;;;;22.45;2.55;;;;;;;2.56;100.00;101181.53;5072468;28;20029;-81
2023/02/25 06:36:24;;;;;;;15.20;2.17;;;;;;;2.40;100.00;101189.34;5072675;28;20117;-80
2023/02/25 06:38:49;;;;;;;15.27;1.67;;;;;;;2.17;100.00;101177.38;5055304;28;20518;-80
2023/02/25 06:41:18;;;;;;;8.93;1.48;;;;;;;1.97;100.00;101178.34;5073171;28;20040;-81
2023/02/25 06:43:44;;;;;;;10.48;1.98;;;;;;;1.84;100.00;101180.72;5073850;28;20043;-79
2023/02/25 06:46:13;;;;;;;10.00;1.52;;;;;;;1.79;100.00;101182.72;5074273;28;20436;-81
2023/02/25 06:48:39;;;;;;;9.20;1.35;;;;;;;1.70;100.00;101182.25;5073414;28;20083;-79
2023/02/25 06:51:09;;;;;;;10.65;1.90;;;;;;;1.65;100.00;101184.22;5072612;28;20047;-78
2023/02/25 06:53:38;;;;;;;13.70;2.58;;;;;;;1.61;100.00;101185.28;5072827;28;20036;-80
2023/02/25 06:56:05;;;;;;;16.02;2.10;;;;;;;1.56;100.00;101180.25;5072164;28;20037;-78
2023/02/25 06:58:31;;;;;;;23.02;2.65;;;;;;;1.55;100.00;101203.94;5073168;28;20043;-79
2023/02/25 07:00:57;;;;;;;17.98;2.33;;;;;;;1.67;100.00;101220.88;5072751;28;20032;-78
2023/02/25 07:03:22;;;;;;;12.52;1.55;;;;;;;1.68;100.00;101235.69;5072067;28;20029;-78
2023/02/25 07:05:47;;;;;;;8.00;1.95;;;;;;;1.66;100.00;101243.66;5072579;28;20035;-79
2023/02/25 07:08:13;;;;;;;16.17;2.03;;;;;;;1.59;100.00;101229.09;5072245;28;20462;-81
2023/02/25 07:10:40;;;;;;;7.32;1.48;;;;;;;1.49;100.00;101210.31;5072717;28;20477;-79
2023/02/25 07:13:07;;;;;;;11.77;2.13;;;;;;;1.34;100.00;101206.63;5054112;28;20028;-79
2023/02/25 07:15:33;;;;;;;18.20;1.80;;;;;;;1.26;100.00;101219.25;5072576;28;20085;-79
2023/02/25 07:17:58;;;;;;;10.68;1.75;;;;;;;1.20;100.00;101220.38;5072301;28;20115;-80
2023/02/25 07:20:24;;;;;;;10.50;1.67;;;;;;;1.21;100.00;101214.22;5071997;28;20413;-79
2023/02/25 07:22:49;;;;;;;16.30;2.00;;;;;;;1.27;100.00;101215.72;5072259;28;20112;-79
2023/02/25 07:25:14;;;;;;;13.15;2.13;;;;;;;1.31;100.00;101204.16;5071836;28;20039;-79
2023/02/25 07:27:41;;;;;;;11.35;2.13;;;;;;;1.34;100.00;101221.53;5072416;28;20461;-79
2023/02/25 07:30:08;;;;;;;27.25;4.00;;;;;;;1.33;100.00;101218.06;5071834;28;20028;-79
2023/02/25 07:32:33;;;;;;;14.77;2.75;;;;;;;1.35;100.00;101210.13;5072365;28;20415;-79
2023/02/25 07:34:58;;;;;;;13.85;2.47;;;;;;;1.39;100.00;101220.41;5072258;28;20028;-79
2023/02/25 07:37:24;;;;;;;20.00;2.70;;;;;;;1.45;100.00;101224.50;5071876;28;20089;-79
2023/02/25 07:39:50;;;;;;;24.50;3.55;;;;;;;1.62;100.00;101236.00;5072213;28;20377;-78
2023/02/25 07:42:15;;;;;;;22.20;2.85;;;;;;;1.73;100.00;101231.94;5071793;28;20379;-79
2023/02/25 07:44:40;;;;;;;22.30;3.72;;;;;;;1.92;100.00;101223.19;5054163;28;20123;-79
2023/02/25 07:47:06;;;;;;;34.70;3.65;;;;;;;2.05;100.00;101228.69;5071772;28;20105;-79
2023/02/25 07:49:31;;;;;;;16.05;2.92;;;;;;;2.13;100.00;101223.91;5072346;28;20049;-79
2023/02/25 07:51:56;;;;;;;18.52;3.55;;;;;;;2.28;100.00;101228.44;5054162;28;20037;-79
2023/02/25 07:54:22;;;;;;;24.25;2.92;;;;;;;2.56;100.00;101224.41;5074185;28;20033;-79
2023/02/25 07:56:51;;;;;;;19.98;2.70;;;;;;;2.92;100.00;101225.22;5076259;28;20436;-79
2023/02/25 07:59:17;;;;;;;21.58;2.90;;;;;;;3.22;100.00;101225.38;5075981;28;20028;-78
2023/02/25 08:01:43;;;;;;;18.30;2.88;;;;;;;3.41;100.00;101224.38;5077216;28;20028;-79
2023/02/25 08:04:09;;;;;;;29.10;3.22;;;;;;;3.46;100.00;101223.22;5075481;28;20020;-79
2023/02/25 08:06:36;;;;;;;24.70;4.00;;;;;;;3.52;100.00;101230.75;5075865;28;20457;-79
2023/02/25 08:09:06;;;;;;;20.77;3.42;;;;;;;3.71;100.00;101232.38;5075664;28;20052;-79
2023/02/25 08:11:32;;;;;;;21.67;3.70;;;;;;;3.98;100.00;101234.41;5075684;28;20024;-79
2023/02/25 08:13:59;;;;;;;27.25;3.50;;;;;;;4.11;100.00;101232.75;5075136;28;20032;-79
2023/02/25 08:16:25;;;;;;;23.08;3.58;;;;;;;4.15;100.00;101238.69;5075131;28;20041;-79
2023/02/25 08:18:51;;;;;;;18.90;2.80;;;;;;;3.98;100.00;101245.75;5075411;28;20044;-79
2023/02/25 08:21:20;;;;;;;24.52;3.38;;;;;;;3.81;100.00;101254.63;5074944;28;20040;-79
2023/02/25 08:23:49;;;;;;;20.02;2.90;;;;;;;3.79;100.00;101245.97;5075300;28;20430;-78
2023/02/25 08:26:16;;;;;;;23.10;3.35;;;;;;;3.83;100.00;101250.09;5074946;28;20133;-78
2023/02/25 08:28:42;;;;;;;15.63;2.42;;;;;;;3.97;100.00;101253.75;5075158;28;20115;-79
2023/02/25 08:31:10;;;;;;;20.20;2.83;;;;;;;4.11;100.00;101245.09;5075055;28;20029;-79
2023/02/25 08:33:37;;;;;;;25.40;3.38;;;;;;;4.20;100.00;101250.66;5075124;28;20506;-79
2023/02/25 08:36:14;;;;;;;20.65;2.83;;;;;;;4.36;100.00;101257.69;5075425;28;20048;-78
2023/02/25 08:38:41;;;;;;;15.45;2.63;;;;;;;4.42;100.00;101249.44;5075163;28;20028;-76
2023/02/25 08:41:07;;;;;;;17.58;3.40;;;;;;;4.38;100.00;101266.38;5075015;28;20216;-77
2023/02/25 08:43:33;;;;;;;26.88;4.28;;;;;;;4.33;100.00;101266.63;5074163;28;20104;-78
2023/02/25 08:45:58;;;;;;;18.20;2.88;;;;;;;4.43;100.00;101264.28;5075163;28;20032;-77
2023/02/25 08:48:24;;;;;;;20.45;2.78;;;;;;;4.68;100.00;101258.44;5074840;28;20387;-77
2023/02/25 08:50:49;;;;;;;20.80;3.20;;;;;;;5.05;100.00;101260.69;5075020;28;20033;-78
2023/02/25 08:53:14;;;;;;;16.60;3.08;;;;;;;5.41;100.00;101268.13;5056587;28;20029;-80
2023/02/25 08:55:40;;;;;;;13.70;2.88;;;;;;;5.74;100.00;101263.47;5050876;28;20036;-75
2023/02/25 08:58:06;;;;;;;24.92;2.92;;;;;;;5.99;100.00;101258.34;5044452;28;20501;-78
2023/02/25 09:00:32;;;;;;;23.67;3.20;;;;;;;6.11;100.00;101258.50;5053649;28;20499;-77
2023/02/25 09:02:57;;;;;;;21.33;3.75;;;;;;;6.23;100.00;101262.97;5053416;28;20028;-79
2023/02/25 09:05:23;;;;;;;18.52;3.15;;;;;;;6.38;100.00;101268.22;5053797;28;20041;-80
2023/02/25 09:07:51;;;;;;;19.25;2.78;;;;;;;6.40;100.00;101274.22;5053993;28;20496;-81
2023/02/25 09:10:18;;;;;;;20.23;3.35;;;;;;;6.65;100.00;101263.72;5052147;28;20030;-80
2023/02/25 09:12:45;;;;;;;18.05;2.53;;;;;;;6.47;100.00;101276.38;5053948;28;20093;-84
2023/02/25 09:15:11;;;;;;;19.05;2.65;;;;;;;6.03;100.00;101272.22;5054456;28;20052;-82
2023/02/25 09:17:38;;;;;;;17.10;2.67;;;;;;;5.70;100.00;101291.84;5053528;28;20095;-78
2023/02/25 09:20:10;;;;;;;21.13;3.53;;;;;;;5.40;100.00;101281.41;5035800;28;20021;-78
2023/02/25 09:22:37;;;;;;;15.63;2.38;;;;;;;5.65;100.00;101294.78;5053483;28;20033;-79
2023/02/25 09:25:05;;;;;;;17.83;2.60;;;;;;;6.33;100.00;101292.31;5053831;28;20032;-78
2023/02/25 09:27:30;;;;;;;12.48;2.65;;;;;;;7.44;100.00;101291.91;5053198;28;20033;-79
2023/02/25 09:29:56;;;;;;;14.43;2.90;;;;;;;8.48;100.00;101294.16;5053851;28;20041;-77
2023/02/25 09:32:21;;;;;;;15.32;2.20;;;;;;;9.13;91.54;101297.22;5052336;28;20036;-78
2023/02/25 09:34:51;;;;;;;17.20;2.42;;;;;;;8.69;98.08;101304.09;5053789;28;20072;-78
2023/02/25 09:37:18;;;;;;;18.40;2.47;;;;;;;8.97;100.00;101313.47;5053307;28;20124;-79
2023/02/25 09:39:44;;;;;;;22.25;2.63;;;;;;;8.87;100.00;101323.06;5053953;28;20522;-84
2023/02/25 09:42:15;;;;;;;15.20;2.28;;;;;;;8.00;100.00;101324.13;5054795;28;20094;-79
2023/02/25 09:44:59;;;;;;;12.13;2.05;;;;;;;6.94;100.00;101334.13;5053475;28;20029;-79
2023/02/25 09:47:57;;;;;;;15.20;2.35;;;;;;;7.30;100.00;101332.56;5052665;28;20029;-79
2023/02/25 09:50:34;;;;;;;15.13;2.13;;;;;;;7.84;100.00;101334.94;5034951;28;20037;-77
2023/02/25 09:53:08;;;;;;;16.60;3.25;;;;;;;9.39;100.00;101332.38;5053006;28;20032;-78
2023/02/25 09:55:41;;;;;;;14.23;2.72;;;;;;;11.31;85.48;101332.81;5053499;28;20122;-79
2023/02/25 09:58:42;;;;;;;13.45;2.15;;;;;;;11.46;78.67;101339.47;5036011;28;20116;-80
2023/02/25 10:01:17;;;;;;;16.90;2.40;;;;;;;10.04;81.14;101346.72;5052891;28;20060;-81
2023/02/25 10:04:08;;;;;;;12.25;2.60;;;;;;;8.54;100.00;101336.13;5052934;28;20025;-80
2023/02/25 10:06:38;;;;;;;14.40;2.25;;;;;;;8.29;100.00;101334.41;5053089;28;20059;-80
2023/02/25 10:09:06;;;;;;;16.20;2.72;;;;;;;10.02;100.00;101347.81;5053156;28;20112;-84
2023/02/25 10:11:57;;;;;;;13.98;2.13;;;;;;;11.80;73.20;101349.88;5052414;28;20036;-81
2023/02/25 10:14:50;;;;;;;13.57;2.35;;;;;;;13.08;63.97;101348.19;5052100;28;20029;-81
2023/02/25 10:17:21;;;;;;;18.20;2.42;;;;;;;13.81;56.93;101347.59;5052463;28;20059;-81
2023/02/25 10:20:04;;;;;;;16.83;2.50;;;;;;;14.24;54.40;101343.41;5052821;28;20067;-80
2023/02/25 10:23:00;;;;;;;17.73;2.92;;;;;;;13.73;54.42;101346.53;5052252;28;20040;-80
2023/02/25 10:25:31;;;;;;;13.88;2.50;;;;;;;11.87;56.24;101348.34;5051692;28;20048;-76
2023/02/25 10:28:03;;;;;;;11.18;2.92;;;;;;;10.19;70.30;101354.44;5036300;28;20060;-75
2023/02/25 10:30:32;;;;;;;17.27;2.20;;;;;;;8.99;83.21;101352.19;5052290;28;20120;-77
2023/02/25 10:33:02;;;;;;;15.07;2.10;;;;;;;7.92;83.93;101360.91;5052057;28;20231;-76
2023/02/25 10:35:33;;;;;;;18.38;2.05;;;;;;;7.18;93.64;101353.63;5050870;28;20029;-78
2023/02/25 10:37:59;;;;;;;14.07;1.93;;;;;;;6.61;100.00;101367.16;5051816;28;20393;-79
2023/02/25 10:40:28;;;;;;;10.93;1.77;;;;;;;6.71;100.00;101374.38;5051204;28;20032;-76
2023/02/25 10:42:57;;;;;;;11.75;1.83;;;;;;;7.57;100.00;101373.03;5051459;28;20100;-79
2023/02/25 10:45:24;;;;;;;7.03;1.50;;;;;;;9.67;86.39;101375.38;5051698;28;20488;-77
2023/02/25 10:47:57;;;;;;;10.07;1.88;;;;;;;11.52;69.37;101378.06;5051784;28;20133;-77
2023/02/25 10:50:25;;;;;;;7.45;1.77;;;;;;;12.32;61.78;101376.44;5052251;28;20507;-76
2023/02/25 10:52:54;;;;;;;7.93;1.50;;;;;;;13.12;60.89;101371.84;5051706;28;20033;-76
2023/02/25 10:55:27;;;;;;;5.90;1.38;;;;;;;13.62;55.40;101373.44;5051769;28;20021;-76
2023/02/25 10:57:53;;;;;;;9.07;1.63;;;;;;;13.69;55.49;101379.88;5051868;28;20052;-77
2023/02/25 11:00:27;;;;;;;6.00;1.20;;;;;;;13.89;54.14;101379.81;5051781;28;20461;-77
2023/02/25 11:02:54;;;;;;;6.28;1.30;;;;;;;14.08;51.60;101384.22;5051310;28;20029;-76
2023/02/25 11:05:42;;;;;;;4.72;1.10;;;;;;;14.14;49.38;101390.78;5051693;28;20083;-76
2023/02/25 11:08:30;;;;;;;5.95;1.60;;;;;;;14.01;49.73;101386.63;5052232;28;20020;-77
2023/02/25 11:11:02;;;;;;;9.27;3.13;;;;;;;13.64;49.00;101395.50;5052063;28;20477;-78
2023/02/25 11:13:31;;;;;;;4.85;1.20;;;;;;;13.11;48.13;101385.34;5051662;28;20488;-81
2023/02/25 11:16:01;;;;;;;3.35;1.02;;;;;;;12.94;50.37;101398.41;5051315;28;20025;-78
2023/02/25 11:18:29;;;;;;;7.75;1.70;;;;;;;12.43;53.84;101404.81;5050748;28;20060;-77
2023/02/25 11:20:58;;;;;;;3.88;1.13;;;;;;;11.76;54.22;101415.94;5051483;28;20063;-77
2023/02/25 11:23:45;;;;;;;4.10;1.20;;;;;;;11.05;54.01;101421.09;5051601;28;20129;-76
2023/02/25 11:26:17;;;;;;;5.05;1.23;;;;;;;10.15;58.63;101423.00;5051585;28;20033;-79
2023/02/25 11:28:47;;;;;;;4.53;1.10;;;;;;;9.40;59.60;101424.34;5052680;28;20067;-78